createdAt,value
2019-01-30T00:00:32.972Z,11.63
2019-01-30T00:01:36.793Z,11.28
2019-01-30T00:02:40.814Z,15.85
2019-01-30T00:03:44.755Z,11.25
2019-01-30T00:04:48.622Z,14.75
2019-01-30T00:05:52.751Z,11.83
2019-01-30T00:06:57.130Z,14.15
2019-01-30T00:08:01.133Z,10.40
2019-01-30T00:09:08.652Z,13.75
2019-01-30T00:10:12.807Z,12.07
2019-01-30T00:11:16.844Z,13.45
2019-01-30T00:12:20.734Z,11.15
2019-01-30T00:13:24.655Z,10.00
2019-01-30T00:14:28.731Z,13.55
2019-01-30T00:15:32.989Z,13.68
2019-01-30T00:16:37.394Z,12.03
2019-01-30T00:17:41.500Z,11.10
2019-01-30T00:18:45.623Z,11.25
2019-01-30T00:19:49.752Z,12.68
2019-01-30T00:20:53.795Z,13.50
2019-01-30T00:21:57.821Z,11.50
2019-01-30T00:23:01.719Z,13.55
2019-01-30T00:24:05.537Z,10.80
2019-01-30T00:25:09.590Z,11.00
2019-01-30T00:26:13.705Z,11.35
2019-01-30T00:27:17.804Z,10.70
2019-01-30T00:28:21.791Z,11.83
2019-01-30T00:29:25.654Z,13.00
2019-01-30T00:30:29.695Z,12.28
2019-01-30T00:31:33.543Z,12.95
2019-01-30T00:32:37.434Z,12.68
2019-01-30T00:33:41.441Z,11.65
2019-01-30T00:34:45.345Z,13.08
2019-01-30T00:35:49.378Z,11.18
2019-01-30T00:36:53.520Z,11.20
2019-01-30T00:37:58.617Z,11.88
2019-01-30T00:39:03.437Z,14.98
2019-01-30T00:40:08.247Z,11.85
2019-01-30T00:41:12.306Z,10.98
2019-01-30T00:42:16.311Z,14.23
2019-01-30T00:43:20.222Z,9.75
2019-01-30T00:44:24.184Z,11.85
2019-01-30T00:45:28.086Z,11.60
2019-01-30T00:46:32.005Z,13.40
2019-01-30T00:47:36.106Z,11.95
2019-01-30T00:48:40.223Z,12.93
2019-01-30T00:49:44.195Z,10.98
2019-01-30T00:50:48.085Z,11.75
2019-01-30T00:51:52.204Z,10.38
2019-01-30T00:52:56.221Z,10.63
2019-01-30T00:54:00.021Z,13.25
2019-01-30T00:55:04.182Z,10.43
2019-01-30T00:56:08.096Z,12.47
2019-01-30T00:57:12.103Z,9.53
2019-01-30T00:58:16.156Z,13.03
2019-01-30T00:59:20.066Z,11.88
2019-01-30T01:00:24.189Z,9.95
2019-01-30T01:01:28.236Z,12.10
2019-01-30T01:02:32.121Z,8.85
2019-01-30T01:03:36.285Z,10.85
2019-01-30T01:04:40.256Z,10.98
2019-01-30T01:05:44.395Z,9.95
2019-01-30T01:06:48.399Z,9.78
2019-01-30T01:07:52.451Z,11.60
2019-01-30T01:08:56.509Z,11.70
2019-01-30T01:10:07.703Z,12.65
2019-01-30T01:11:11.677Z,11.30
2019-01-30T01:12:15.785Z,9.10
2019-01-30T01:13:19.916Z,11.28
2019-01-30T01:14:23.823Z,12.05
2019-01-30T01:15:27.907Z,11.30
2019-01-30T01:16:32.017Z,9.43
2019-01-30T01:17:35.895Z,10.98
2019-01-30T01:18:39.893Z,9.65
2019-01-30T01:19:44.068Z,9.98
2019-01-30T01:20:48.090Z,12.23
2019-01-30T01:21:52.103Z,11.48
2019-01-30T01:22:55.997Z,13.35
2019-01-30T01:24:00.165Z,11.93
2019-01-30T01:25:04.909Z,10.35
2019-01-30T01:26:09.068Z,10.13
2019-01-30T01:27:13.155Z,10.13
2019-01-30T01:28:17.214Z,9.53
2019-01-30T01:29:21.103Z,10.08
2019-01-30T01:30:26.659Z,10.35
2019-01-30T01:31:30.611Z,9.18
2019-01-30T01:32:34.623Z,10.32
2019-01-30T01:33:38.523Z,8.95
2019-01-30T01:34:42.547Z,9.95
2019-01-30T01:35:46.319Z,12.10
2019-01-30T01:36:50.422Z,10.25
2019-01-30T01:37:54.371Z,8.50
2019-01-30T01:38:58.463Z,9.05
2019-01-30T01:40:02.539Z,9.30
2019-01-30T01:41:08.658Z,9.85
2019-01-30T01:42:12.648Z,9.10
2019-01-30T01:43:16.591Z,9.50
2019-01-30T01:44:20.622Z,9.28
2019-01-30T01:45:24.737Z,10.20
2019-01-30T01:46:28.757Z,9.88
2019-01-30T01:47:32.689Z,9.35
2019-01-30T01:48:36.659Z,11.30
2019-01-30T01:49:40.603Z,9.60
2019-01-30T01:50:44.777Z,9.65
2019-01-30T01:51:48.881Z,9.40
2019-01-30T01:52:52.981Z,9.28
2019-01-30T01:53:56.899Z,9.68
2019-01-30T01:55:00.952Z,9.80
2019-01-30T01:56:04.889Z,9.35
2019-01-30T01:57:08.883Z,12.45
2019-01-30T01:58:12.768Z,11.38
2019-01-30T01:59:16.679Z,12.88
2019-01-30T02:00:21.624Z,8.30
2019-01-30T02:01:25.769Z,8.73
2019-01-30T02:02:29.654Z,10.45
2019-01-30T02:03:33.671Z,8.73
2019-01-30T02:04:37.693Z,10.58
2019-01-30T02:05:41.701Z,8.73
2019-01-30T02:06:45.871Z,10.35
2019-01-30T02:07:50.867Z,9.23
2019-01-30T02:08:54.851Z,8.45
2019-01-30T02:09:58.856Z,8.45
2019-01-30T02:11:02.876Z,10.50
2019-01-30T02:12:06.957Z,9.43
2019-01-30T02:13:11.009Z,12.25
2019-01-30T02:14:15.121Z,9.15
2019-01-30T02:15:21.034Z,9.03
2019-01-30T02:16:25.035Z,9.70
2019-01-30T02:17:29.029Z,9.50
2019-01-30T02:18:33.057Z,7.53
2019-01-30T02:19:37.043Z,8.98
2019-01-30T02:20:41.027Z,8.93
2019-01-30T02:21:44.986Z,8.48
2019-01-30T02:22:48.945Z,8.55
2019-01-30T02:23:53.072Z,7.83
2019-01-30T02:24:57.087Z,10.20
2019-01-30T02:26:01.165Z,10.65
2019-01-30T02:27:05.283Z,8.28
2019-01-30T02:28:09.327Z,11.95
2019-01-30T02:29:13.178Z,8.98
2019-01-30T02:30:22.301Z,8.45
2019-01-30T02:31:26.483Z,9.40
2019-01-30T02:32:30.484Z,8.53
2019-01-30T02:33:34.459Z,8.48
2019-01-30T02:34:38.422Z,8.28
2019-01-30T02:35:42.239Z,8.45
2019-01-30T02:36:59.089Z,8.88
2019-01-30T02:38:03.097Z,9.93
2019-01-30T02:39:07.807Z,9.58
2019-01-30T02:40:13.492Z,7.72
2019-01-30T02:41:17.644Z,7.37
2019-01-30T02:42:22.047Z,10.20
2019-01-30T02:43:25.811Z,8.63
2019-01-30T02:44:30.132Z,8.70
2019-01-30T02:45:33.933Z,9.03
2019-01-30T02:46:37.871Z,9.85
2019-01-30T02:47:42.287Z,8.40
2019-01-30T02:48:46.254Z,7.72
2019-01-30T02:49:50.347Z,7.12
2019-01-30T02:50:54.343Z,8.60
2019-01-30T02:51:58.253Z,10.85
2019-01-30T02:53:02.276Z,9.40
2019-01-30T02:54:06.324Z,7.12
2019-01-30T02:55:11.576Z,7.67
2019-01-30T02:56:15.676Z,8.70
2019-01-30T02:57:19.699Z,6.80
2019-01-30T02:58:23.703Z,7.87
2019-01-30T02:59:27.621Z,8.00
2019-01-30T03:00:32.632Z,7.60
2019-01-30T03:01:46.853Z,8.10
2019-01-30T03:02:50.794Z,8.70
2019-01-30T03:03:54.799Z,9.35
2019-01-30T03:04:58.577Z,8.48
2019-01-30T03:06:02.673Z,7.03
2019-01-30T03:07:06.682Z,7.47
2019-01-30T03:08:10.703Z,11.30
2019-01-30T03:09:14.793Z,8.93
2019-01-30T03:10:19.269Z,6.75
2019-01-30T03:11:23.301Z,7.90
2019-01-30T03:12:27.335Z,9.60
2019-01-30T03:13:31.336Z,7.65
2019-01-30T03:14:35.425Z,8.15
2019-01-30T03:15:39.536Z,9.38
2019-01-30T03:16:43.449Z,7.00
2019-01-30T03:17:47.356Z,6.83
2019-01-30T03:18:51.460Z,7.97
2019-01-30T03:19:55.453Z,7.30
2019-01-30T03:20:59.240Z,8.35
2019-01-30T03:22:03.256Z,7.37
2019-01-30T03:23:07.343Z,7.03
2019-01-30T03:24:11.391Z,7.45
2019-01-30T03:25:15.664Z,8.75
2019-01-30T03:26:19.461Z,7.60
2019-01-30T03:27:23.467Z,11.45
2019-01-30T03:28:27.451Z,7.60
2019-01-30T03:29:31.389Z,7.92
2019-01-30T03:30:35.286Z,7.80
2019-01-30T03:31:39.399Z,7.65
2019-01-30T03:32:43.217Z,7.65
2019-01-30T03:33:47.407Z,7.40
2019-01-30T03:34:51.553Z,8.58
2019-01-30T03:35:55.547Z,7.00
2019-01-30T03:36:59.345Z,8.83
2019-01-30T03:38:03.123Z,6.78
2019-01-30T03:39:08.244Z,7.45
2019-01-30T03:40:14.321Z,7.67
2019-01-30T03:41:18.399Z,7.78
2019-01-30T03:42:22.529Z,7.70
2019-01-30T03:43:26.427Z,7.80
2019-01-30T03:44:30.679Z,11.22
2019-01-30T03:45:34.705Z,8.90
2019-01-30T03:46:38.831Z,7.95
2019-01-30T03:47:42.833Z,8.53
2019-01-30T03:48:46.969Z,7.65
2019-01-30T03:49:51.048Z,6.55
2019-01-30T03:50:55.047Z,8.48
2019-01-30T03:51:59.153Z,9.03
2019-01-30T03:53:03.099Z,9.13
2019-01-30T03:54:07.031Z,9.68
2019-01-30T03:55:12.305Z,7.10
2019-01-30T03:56:16.373Z,8.05
2019-01-30T03:57:20.528Z,7.00
2019-01-30T03:58:24.535Z,8.68
2019-01-30T03:59:28.320Z,7.30
2019-01-30T04:00:32.313Z,7.10
2019-01-30T04:01:36.344Z,7.70
2019-01-30T04:02:40.290Z,6.90
2019-01-30T04:03:44.263Z,8.18
2019-01-30T04:04:48.238Z,9.58
2019-01-30T04:05:52.155Z,7.15
2019-01-30T04:06:56.240Z,6.40
2019-01-30T04:08:00.255Z,9.23
2019-01-30T04:09:05.886Z,6.97
2019-01-30T04:10:12.180Z,7.65
2019-01-30T04:11:16.191Z,6.97
2019-01-30T04:12:20.139Z,7.78
2019-01-30T04:13:24.251Z,11.63
2019-01-30T04:14:28.548Z,7.95
2019-01-30T04:15:32.543Z,7.85
2019-01-30T04:16:36.447Z,6.60
2019-01-30T04:17:40.349Z,7.10
2019-01-30T04:18:45.027Z,8.18
2019-01-30T04:19:49.032Z,6.67
2019-01-30T04:20:53.151Z,9.28
2019-01-30T04:21:57.081Z,6.22
2019-01-30T04:23:01.091Z,7.70
2019-01-30T04:24:05.029Z,6.60
2019-01-30T04:25:09.653Z,7.83
2019-01-30T04:26:13.647Z,6.85
2019-01-30T04:27:17.520Z,6.10
2019-01-30T04:28:21.425Z,6.90
2019-01-30T04:29:25.558Z,6.85
2019-01-30T04:30:29.682Z,7.85
2019-01-30T04:31:38.145Z,6.42
2019-01-30T04:32:39.406Z,7.47
2019-01-30T04:33:43.670Z,7.80
2019-01-30T04:34:47.542Z,6.65
2019-01-30T04:35:51.583Z,6.55
2019-01-30T04:36:55.559Z,6.87
2019-01-30T04:37:59.435Z,8.85
2019-01-30T04:39:04.425Z,8.35
2019-01-30T04:40:10.698Z,7.47
2019-01-30T04:41:14.605Z,8.08
2019-01-30T04:42:18.713Z,10.35
2019-01-30T04:43:22.730Z,8.65
2019-01-30T04:44:26.603Z,8.98
2019-01-30T04:45:30.752Z,8.60
2019-01-30T04:46:34.867Z,8.28
2019-01-30T04:47:38.969Z,7.15
2019-01-30T04:48:42.920Z,7.22
2019-01-30T04:49:46.895Z,6.28
2019-01-30T04:50:50.911Z,8.13
2019-01-30T04:51:54.918Z,7.65
2019-01-30T04:52:58.921Z,7.20
2019-01-30T04:54:02.736Z,6.45
2019-01-30T04:55:07.002Z,7.72
2019-01-30T04:56:11.007Z,6.70
2019-01-30T04:57:14.923Z,7.03
2019-01-30T04:58:18.829Z,6.90
2019-01-30T04:59:22.965Z,9.08
2019-01-30T05:00:26.800Z,7.00
2019-01-30T05:01:31.087Z,8.15
2019-01-30T05:02:34.994Z,6.60
2019-01-30T05:03:39.089Z,5.62
2019-01-30T05:04:43.059Z,7.95
2019-01-30T05:05:46.886Z,9.08
2019-01-30T05:06:50.910Z,7.42
2019-01-30T05:07:54.971Z,6.05
2019-01-30T05:08:58.845Z,7.55
2019-01-30T05:10:02.965Z,6.75
2019-01-30T05:11:06.895Z,7.12
2019-01-30T05:12:10.903Z,6.60
2019-01-30T05:13:14.846Z,5.50
2019-01-30T05:14:18.972Z,6.78
2019-01-30T05:15:23.351Z,6.75
2019-01-30T05:16:27.276Z,6.20
2019-01-30T05:17:31.250Z,6.62
2019-01-30T05:18:35.258Z,6.22
2019-01-30T05:19:39.284Z,7.90
2019-01-30T05:20:43.372Z,5.30
2019-01-30T05:21:47.505Z,7.08
2019-01-30T05:22:51.514Z,8.88
2019-01-30T05:23:55.499Z,6.80
2019-01-30T05:24:59.617Z,6.10
2019-01-30T05:26:03.653Z,7.17
2019-01-30T05:27:07.564Z,5.30
2019-01-30T05:28:11.671Z,7.60
2019-01-30T05:29:15.801Z,6.35
2019-01-30T05:30:22.631Z,7.15
2019-01-30T05:31:26.771Z,6.50
2019-01-30T05:32:30.771Z,7.65
2019-01-30T05:33:34.775Z,6.00
2019-01-30T05:34:38.903Z,8.20
2019-01-30T05:35:43.173Z,8.33
2019-01-30T05:36:47.015Z,6.03
2019-01-30T05:37:51.527Z,5.80
2019-01-30T05:38:55.816Z,6.67
2019-01-30T05:39:59.821Z,8.73
2019-01-30T05:41:03.725Z,5.67
2019-01-30T05:42:07.766Z,5.65
2019-01-30T05:43:11.576Z,5.55
2019-01-30T05:44:15.694Z,6.85
2019-01-30T05:45:19.713Z,6.08
2019-01-30T05:46:23.677Z,6.50
2019-01-30T05:47:27.702Z,6.45
2019-01-30T05:48:31.707Z,6.12
2019-01-30T05:49:35.883Z,6.30
2019-01-30T05:50:39.959Z,7.53
2019-01-30T05:51:44.057Z,6.40
2019-01-30T05:52:48.045Z,6.37
2019-01-30T05:53:52.043Z,6.50
2019-01-30T05:54:55.967Z,9.85
2019-01-30T05:55:59.989Z,5.65
2019-01-30T05:57:04.038Z,8.98
2019-01-30T05:58:08.157Z,8.28
2019-01-30T05:59:12.155Z,6.20
2019-01-30T06:00:18.995Z,6.17
2019-01-30T06:01:22.999Z,6.00
2019-01-30T06:02:27.129Z,6.67
2019-01-30T06:03:31.056Z,8.88
2019-01-30T06:04:34.864Z,8.85
2019-01-30T06:05:38.862Z,6.08
2019-01-30T06:06:42.875Z,7.62
2019-01-30T06:07:47.147Z,8.50
2019-01-30T06:08:51.007Z,6.20
2019-01-30T06:09:55.138Z,6.20
2019-01-30T06:10:59.464Z,8.20
2019-01-30T06:12:03.481Z,6.47
2019-01-30T06:13:07.479Z,7.80
2019-01-30T06:14:11.459Z,6.05
2019-01-30T06:15:15.750Z,6.55
2019-01-30T06:16:19.731Z,6.90
2019-01-30T06:17:23.858Z,9.53
2019-01-30T06:18:27.837Z,6.67
2019-01-30T06:19:31.745Z,8.18
2019-01-30T06:20:35.661Z,6.30
2019-01-30T06:21:39.655Z,6.10
2019-01-30T06:22:43.622Z,6.47
2019-01-30T06:23:47.409Z,8.13
2019-01-30T06:24:51.428Z,7.15
2019-01-30T06:25:55.363Z,6.53
2019-01-30T06:26:59.488Z,5.70
2019-01-30T06:28:03.469Z,11.78
2019-01-30T06:29:07.450Z,6.05
2019-01-30T06:30:13.103Z,6.05
2019-01-30T06:31:17.099Z,7.05
2019-01-30T06:32:22.181Z,8.93
2019-01-30T06:33:26.416Z,9.20
2019-01-30T06:34:30.892Z,8.03
2019-01-30T06:35:35.095Z,6.15
2019-01-30T06:36:39.115Z,9.73
2019-01-30T06:37:43.279Z,6.45
2019-01-30T06:38:47.406Z,7.12
2019-01-30T06:39:51.447Z,6.47
2019-01-30T06:40:55.390Z,9.68
2019-01-30T06:41:59.366Z,12.30
2019-01-30T06:43:03.433Z,11.12
2019-01-30T06:44:07.372Z,7.25
2019-01-30T06:45:11.348Z,5.53
2019-01-30T06:46:15.329Z,8.85
2019-01-30T06:47:19.254Z,7.65
2019-01-30T06:48:23.397Z,6.85
2019-01-30T06:49:27.395Z,8.20
2019-01-30T06:50:31.389Z,6.25
2019-01-30T06:51:35.424Z,6.15
2019-01-30T06:52:39.419Z,7.60
2019-01-30T06:53:43.567Z,9.00
2019-01-30T06:54:47.908Z,8.63
2019-01-30T06:55:51.829Z,7.03
2019-01-30T06:56:55.610Z,7.40
2019-01-30T06:57:59.546Z,6.95
2019-01-30T06:59:03.607Z,7.00
2019-01-30T07:00:14.452Z,7.45
2019-01-30T07:01:18.476Z,7.47
2019-01-30T07:02:31.811Z,8.05
2019-01-30T07:03:28.165Z,7.22
2019-01-30T07:04:32.306Z,6.90
2019-01-30T07:05:36.178Z,9.25
2019-01-30T07:06:40.296Z,6.83
2019-01-30T07:07:44.263Z,9.93
2019-01-30T07:08:48.366Z,6.45
2019-01-30T07:09:52.369Z,6.50
2019-01-30T07:10:56.385Z,7.95
2019-01-30T07:12:00.291Z,7.42
2019-01-30T07:13:04.301Z,7.08
2019-01-30T07:14:08.215Z,7.92
2019-01-30T07:15:12.131Z,10.72
2019-01-30T07:16:16.511Z,7.03
2019-01-30T07:17:20.569Z,6.45
2019-01-30T07:18:24.563Z,8.60
2019-01-30T07:19:28.475Z,11.12
2019-01-30T07:20:32.635Z,9.85
2019-01-30T07:21:36.704Z,12.05
2019-01-30T07:22:40.860Z,17.92
2019-01-30T07:23:44.791Z,22.58
2019-01-30T07:24:48.583Z,27.35
2019-01-30T07:25:52.526Z,23.05
2019-01-30T07:26:56.524Z,21.45
2019-01-30T07:28:01.169Z,15.63
2019-01-30T07:29:05.173Z,11.30
2019-01-30T07:30:13.517Z,12.70
2019-01-30T07:31:19.302Z,10.95
2019-01-30T07:32:23.378Z,10.50
2019-01-30T07:33:27.803Z,10.82
2019-01-30T07:34:31.806Z,13.85
2019-01-30T07:35:35.824Z,10.18
2019-01-30T07:36:39.908Z,13.32
2019-01-30T07:37:43.971Z,9.95
2019-01-30T07:38:47.881Z,9.95
2019-01-30T07:39:51.777Z,12.25
2019-01-30T07:40:55.644Z,8.88
2019-01-30T07:41:59.753Z,16.12
2019-01-30T07:43:03.759Z,27.15
2019-01-30T07:44:07.783Z,33.92
2019-01-30T07:45:13.121Z,28.35
2019-01-30T07:46:17.266Z,29.07
2019-01-30T07:47:21.200Z,44.15
2019-01-30T07:48:28.572Z,111.60
2019-01-30T07:49:31.187Z,145.80
2019-01-30T07:50:35.141Z,156.47
2019-01-30T07:51:39.042Z,154.35
2019-01-30T07:52:43.080Z,48.35
2019-01-30T07:53:47.070Z,28.62
2019-01-30T07:54:51.077Z,40.00
2019-01-30T07:55:55.095Z,20.37
2019-01-30T07:56:58.878Z,12.90
2019-01-30T07:58:03.039Z,15.03
2019-01-30T07:59:07.074Z,15.68
2019-01-30T08:00:17.853Z,17.73
2019-01-30T08:01:22.295Z,26.68
2019-01-30T08:02:26.657Z,20.95
2019-01-30T08:03:30.688Z,11.40
2019-01-30T08:04:34.965Z,10.90
2019-01-30T08:05:38.982Z,13.08
2019-01-30T08:06:43.007Z,8.70
2019-01-30T08:07:47.010Z,9.73
2019-01-30T08:08:51.058Z,7.95
2019-01-30T08:09:55.057Z,7.33
2019-01-30T08:10:59.153Z,9.75
2019-01-30T08:12:03.305Z,9.68
2019-01-30T08:13:07.396Z,7.33
2019-01-30T08:14:11.530Z,7.50
2019-01-30T08:15:16.819Z,6.00
2019-01-30T08:16:21.844Z,6.90
2019-01-30T08:17:25.902Z,9.88
2019-01-30T08:18:29.935Z,10.20
2019-01-30T08:19:34.064Z,11.15
2019-01-30T08:20:38.215Z,10.32
2019-01-30T08:21:42.314Z,12.50
2019-01-30T08:22:46.307Z,11.30
2019-01-30T08:23:50.668Z,13.58
2019-01-30T08:24:55.171Z,16.45
2019-01-30T08:25:59.564Z,30.27
2019-01-30T08:27:03.925Z,37.30
2019-01-30T08:28:08.446Z,28.52
2019-01-30T08:29:12.710Z,24.15
2019-01-30T08:30:24.867Z,28.35
2019-01-30T08:31:29.064Z,18.62
2019-01-30T08:32:33.188Z,19.73
2019-01-30T08:33:37.419Z,20.72
2019-01-30T08:34:41.338Z,12.53
2019-01-30T08:35:45.490Z,12.30
2019-01-30T08:36:49.400Z,11.12
2019-01-30T08:37:53.443Z,9.35
2019-01-30T08:38:57.543Z,9.73
2019-01-30T08:40:01.621Z,12.68
2019-01-30T08:41:05.774Z,8.85
2019-01-30T08:42:09.868Z,17.05
2019-01-30T08:43:13.875Z,12.23
2019-01-30T08:44:17.973Z,9.93
2019-01-30T08:45:26.830Z,12.82
2019-01-30T08:46:30.848Z,12.40
2019-01-30T08:47:34.786Z,8.75
2019-01-30T08:48:38.613Z,7.22
2019-01-30T08:49:42.531Z,6.92
2019-01-30T08:50:46.566Z,10.08
2019-01-30T08:51:50.581Z,7.05
2019-01-30T08:52:54.716Z,8.23
2019-01-30T08:53:58.733Z,6.87
2019-01-30T08:55:02.813Z,8.13
2019-01-30T08:56:06.758Z,7.53
2019-01-30T08:57:10.903Z,13.45
2019-01-30T08:58:14.907Z,12.10
2019-01-30T08:59:18.984Z,10.38
2019-01-30T09:00:23.631Z,10.90
2019-01-30T09:01:27.687Z,13.40
2019-01-30T09:02:31.881Z,9.88
2019-01-30T09:03:35.787Z,13.35
2019-01-30T09:04:39.753Z,12.35
2019-01-30T09:05:43.782Z,15.13
2019-01-30T09:06:47.759Z,9.78
2019-01-30T09:07:51.877Z,8.85
2019-01-30T09:08:55.970Z,9.45
2019-01-30T09:09:59.952Z,7.53
2019-01-30T09:11:03.861Z,8.53
2019-01-30T09:12:08.178Z,5.17
2019-01-30T09:13:12.003Z,5.90
2019-01-30T09:14:15.907Z,8.88
2019-01-30T09:15:21.615Z,5.97
2019-01-30T09:16:25.515Z,6.60
2019-01-30T09:17:29.413Z,8.05
2019-01-30T09:18:33.572Z,6.72
2019-01-30T09:19:37.499Z,5.87
2019-01-30T09:20:41.519Z,5.42
2019-01-30T09:21:45.439Z,6.17
2019-01-30T09:22:49.323Z,5.37
2019-01-30T09:23:53.192Z,7.45
2019-01-30T09:24:57.206Z,6.28
2019-01-30T09:26:01.212Z,4.37
2019-01-30T09:27:05.299Z,5.05
2019-01-30T09:28:09.313Z,5.80
2019-01-30T09:29:13.211Z,7.15
2019-01-30T09:30:22.253Z,8.65
2019-01-30T09:31:26.209Z,10.05
2019-01-30T09:32:30.109Z,8.18
2019-01-30T09:33:34.184Z,7.78
2019-01-30T09:34:38.099Z,5.58
2019-01-30T09:35:42.167Z,6.70
2019-01-30T09:36:46.371Z,6.05
2019-01-30T09:37:50.451Z,7.85
2019-01-30T09:38:54.472Z,6.55
2019-01-30T09:39:58.498Z,5.53
2019-01-30T09:41:02.567Z,5.75
2019-01-30T09:42:06.571Z,7.53
2019-01-30T09:43:10.601Z,7.22
2019-01-30T09:44:14.619Z,7.92
2019-01-30T09:45:18.576Z,9.15
2019-01-30T09:46:22.700Z,8.55
2019-01-30T09:47:26.721Z,4.95
2019-01-30T09:48:30.590Z,5.80
2019-01-30T09:49:34.743Z,6.58
2019-01-30T09:50:38.654Z,6.90
2019-01-30T09:51:42.658Z,8.73
2019-01-30T09:52:46.847Z,10.15
2019-01-30T09:53:50.774Z,6.80
2019-01-30T09:54:57.035Z,5.87
2019-01-30T09:56:01.173Z,7.65
2019-01-30T09:57:05.198Z,5.92
2019-01-30T09:58:09.183Z,5.40
2019-01-30T09:59:13.198Z,6.25
2019-01-30T10:00:28.576Z,8.38
2019-01-30T10:01:32.472Z,5.95
2019-01-30T10:02:36.463Z,4.90
2019-01-30T10:03:40.583Z,4.70
2019-01-30T10:04:44.577Z,7.25
2019-01-30T10:05:48.678Z,5.03
2019-01-30T10:06:52.591Z,5.95
2019-01-30T10:07:56.586Z,6.78
2019-01-30T10:09:00.570Z,5.87
2019-01-30T10:10:06.590Z,6.42
2019-01-30T10:11:10.913Z,5.60
2019-01-30T10:12:15.152Z,5.05
2019-01-30T10:13:19.115Z,6.60
2019-01-30T10:14:23.199Z,5.83
2019-01-30T10:15:30.015Z,5.87
2019-01-30T10:16:34.155Z,5.67
2019-01-30T10:17:38.205Z,5.42
2019-01-30T10:18:42.238Z,5.72
2019-01-30T10:19:46.235Z,5.08
2019-01-30T10:20:50.091Z,5.08
2019-01-30T10:21:55.844Z,5.65
2019-01-30T10:22:59.721Z,6.20
2019-01-30T10:24:03.613Z,10.63
2019-01-30T10:25:08.229Z,8.65
2019-01-30T10:26:12.257Z,8.00
2019-01-30T10:27:16.265Z,6.03
2019-01-30T10:28:20.271Z,8.73
2019-01-30T10:29:24.340Z,6.40
2019-01-30T10:30:30.460Z,7.80
2019-01-30T10:31:34.541Z,6.03
2019-01-30T10:32:38.627Z,7.45
2019-01-30T10:33:46.558Z,6.58
2019-01-30T10:34:48.287Z,5.95
2019-01-30T10:35:52.407Z,7.83
2019-01-30T10:36:56.395Z,5.95
2019-01-30T10:38:00.493Z,7.20
2019-01-30T10:39:06.538Z,5.72
2019-01-30T10:40:13.094Z,8.83
2019-01-30T10:41:17.107Z,8.75
2019-01-30T10:42:21.047Z,5.85
2019-01-30T10:43:25.147Z,6.72
2019-01-30T10:44:29.131Z,5.50
2019-01-30T10:45:33.152Z,9.03
2019-01-30T10:46:37.062Z,6.22
2019-01-30T10:47:41.099Z,8.08
2019-01-30T10:48:44.882Z,6.42
2019-01-30T10:49:48.758Z,5.67
2019-01-30T10:50:52.766Z,6.30
2019-01-30T10:51:56.576Z,5.42
2019-01-30T10:53:00.653Z,7.28
2019-01-30T10:54:04.797Z,7.58
2019-01-30T10:55:11.463Z,7.22
2019-01-30T10:56:16.609Z,8.10
2019-01-30T10:57:20.747Z,9.40
2019-01-30T10:58:24.756Z,10.63
2019-01-30T10:59:28.813Z,7.35
2019-01-30T11:00:38.767Z,8.88
2019-01-30T11:01:42.847Z,6.90
2019-01-30T11:02:46.861Z,8.00
2019-01-30T11:03:57.056Z,6.15
2019-01-30T11:04:56.636Z,9.05
2019-01-30T11:06:00.419Z,6.55
2019-01-30T11:07:04.543Z,9.63
2019-01-30T11:08:08.600Z,9.35
2019-01-30T11:09:12.780Z,12.65
2019-01-30T11:10:17.745Z,8.65
2019-01-30T11:11:21.661Z,12.88
2019-01-30T11:12:25.708Z,10.85
2019-01-30T11:13:29.623Z,12.15
2019-01-30T11:14:33.621Z,10.68
2019-01-30T11:15:37.632Z,12.10
2019-01-30T11:16:41.615Z,16.82
2019-01-30T11:17:45.530Z,8.58
2019-01-30T11:18:49.711Z,6.03
2019-01-30T11:19:53.622Z,8.83
2019-01-30T11:20:57.555Z,9.30
2019-01-30T11:22:01.659Z,7.70
2019-01-30T11:23:06.119Z,10.53
2019-01-30T11:24:10.143Z,11.83
2019-01-30T11:25:23.070Z,11.68
2019-01-30T11:26:27.058Z,8.88
2019-01-30T11:27:31.141Z,11.75
2019-01-30T11:28:35.177Z,11.08
2019-01-30T11:29:39.308Z,9.05
2019-01-30T11:30:43.099Z,9.03
2019-01-30T11:31:47.095Z,9.05
2019-01-30T11:32:51.171Z,9.75
2019-01-30T11:33:55.169Z,11.28
2019-01-30T11:34:59.191Z,13.35
2019-01-30T11:36:03.165Z,9.40
2019-01-30T11:37:07.053Z,12.05
2019-01-30T11:38:11.100Z,9.90
2019-01-30T11:39:15.067Z,7.60
2019-01-30T11:40:19.857Z,8.20
2019-01-30T11:41:23.779Z,8.38
2019-01-30T11:42:27.776Z,13.18
2019-01-30T11:43:31.667Z,12.35
2019-01-30T11:44:36.041Z,18.37
2019-01-30T11:45:42.024Z,10.35
2019-01-30T11:46:45.981Z,8.98
2019-01-30T11:47:50.140Z,9.55
2019-01-30T11:48:56.392Z,8.53
2019-01-30T11:49:59.906Z,8.28
2019-01-30T11:51:03.813Z,8.68
2019-01-30T11:52:07.842Z,7.55
2019-01-30T11:53:12.169Z,9.95
2019-01-30T11:54:16.303Z,9.58
2019-01-30T11:55:20.415Z,9.00
2019-01-30T11:56:24.792Z,10.08
2019-01-30T11:57:28.796Z,9.05
2019-01-30T11:58:32.692Z,9.75
2019-01-30T11:59:37.053Z,8.08
2019-01-30T12:00:56.814Z,7.15
2019-01-30T12:02:00.930Z,7.10
2019-01-30T12:03:04.924Z,7.37
2019-01-30T12:04:17.702Z,9.78
2019-01-30T12:05:15.871Z,7.85
2019-01-30T12:06:19.786Z,10.18
2019-01-30T12:07:23.997Z,7.50
2019-01-30T12:08:27.896Z,7.60
2019-01-30T12:09:31.932Z,6.58
2019-01-30T12:10:35.837Z,7.72
2019-01-30T12:11:39.762Z,7.17
2019-01-30T12:12:43.675Z,7.72
2019-01-30T12:13:47.569Z,6.85
2019-01-30T12:14:51.574Z,10.72
2019-01-30T12:15:55.662Z,10.35
2019-01-30T12:16:59.443Z,7.58
2019-01-30T12:18:03.399Z,7.45
2019-01-30T12:19:07.798Z,9.43
2019-01-30T12:20:12.165Z,8.43
2019-01-30T12:21:16.333Z,8.15
2019-01-30T12:22:20.351Z,13.83
2019-01-30T12:23:24.447Z,8.38
2019-01-30T12:24:28.470Z,9.68
2019-01-30T12:25:32.538Z,10.85
2019-01-30T12:26:36.635Z,10.65
2019-01-30T12:27:40.831Z,8.78
2019-01-30T12:28:45.023Z,8.05
2019-01-30T12:29:49.047Z,8.08
2019-01-30T12:30:52.837Z,10.15
2019-01-30T12:31:57.048Z,7.97
2019-01-30T12:33:01.188Z,7.72
2019-01-30T12:34:05.537Z,7.42
2019-01-30T12:35:09.575Z,9.73
2019-01-30T12:36:13.473Z,8.05
2019-01-30T12:37:17.619Z,7.80
2019-01-30T12:38:21.725Z,7.87
2019-01-30T12:39:25.773Z,10.30
2019-01-30T12:40:29.829Z,7.30
2019-01-30T12:41:35.749Z,8.50
2019-01-30T12:42:39.617Z,6.67
2019-01-30T12:43:45.329Z,11.00
2019-01-30T12:44:49.723Z,9.98
2019-01-30T12:45:53.839Z,8.55
2019-01-30T12:46:57.950Z,7.53
2019-01-30T12:48:01.873Z,13.43
2019-01-30T12:49:05.895Z,8.55
2019-01-30T12:50:10.012Z,9.70
2019-01-30T12:51:13.897Z,7.45
2019-01-30T12:52:18.168Z,8.28
2019-01-30T12:53:22.287Z,8.60
2019-01-30T12:54:26.406Z,9.58
2019-01-30T12:55:30.449Z,9.75
2019-01-30T12:56:34.483Z,11.22
2019-01-30T12:57:38.838Z,17.05
2019-01-30T12:58:42.963Z,8.08
2019-01-30T12:59:47.147Z,8.25
2019-01-30T13:00:51.061Z,8.25
2019-01-30T13:01:55.123Z,9.38
2019-01-30T13:02:59.188Z,7.60
2019-01-30T13:04:03.223Z,9.30
2019-01-30T13:05:07.751Z,10.60
2019-01-30T13:06:11.889Z,8.08
2019-01-30T13:07:15.984Z,13.90
2019-01-30T13:08:19.991Z,16.20
2019-01-30T13:09:23.931Z,20.88
2019-01-30T13:10:28.033Z,16.87
2019-01-30T13:11:32.038Z,19.17
2019-01-30T13:12:36.083Z,20.97
2019-01-30T13:13:40.471Z,27.10
2019-01-30T13:14:44.446Z,29.32
2019-01-30T13:15:48.425Z,23.30
2019-01-30T13:16:52.383Z,21.12
2019-01-30T13:17:56.470Z,16.15
2019-01-30T13:19:00.476Z,13.18
2019-01-30T13:20:05.322Z,16.20
2019-01-30T13:21:09.237Z,12.20
2019-01-30T13:22:13.494Z,16.23
2019-01-30T13:23:17.473Z,16.90
2019-01-30T13:24:21.482Z,14.95
2019-01-30T13:25:30.207Z,9.20
2019-01-30T13:26:34.337Z,10.95
2019-01-30T13:27:38.419Z,9.90
2019-01-30T13:28:42.493Z,8.50
2019-01-30T13:29:46.491Z,18.77
2019-01-30T13:30:51.063Z,17.37
2019-01-30T13:31:55.218Z,20.23
2019-01-30T13:32:59.283Z,16.75
2019-01-30T13:34:03.663Z,12.10
2019-01-30T13:35:07.787Z,9.08
2019-01-30T13:36:11.911Z,10.78
2019-01-30T13:37:15.957Z,8.85
2019-01-30T13:38:19.844Z,9.05
2019-01-30T13:39:23.855Z,9.50
2019-01-30T13:40:30.206Z,9.65
2019-01-30T13:41:34.201Z,8.60
2019-01-30T13:42:38.365Z,8.38
2019-01-30T13:43:42.383Z,10.50
2019-01-30T13:44:46.397Z,9.45
2019-01-30T13:45:50.251Z,9.93
2019-01-30T13:46:54.284Z,8.93
2019-01-30T13:47:58.398Z,13.58
2019-01-30T13:49:02.389Z,8.08
2019-01-30T13:50:10.591Z,11.15
2019-01-30T13:51:14.692Z,8.10
2019-01-30T13:52:18.976Z,10.65
2019-01-30T13:53:22.791Z,7.37
2019-01-30T13:54:26.708Z,9.15
2019-01-30T13:55:30.811Z,8.55
2019-01-30T13:56:34.709Z,10.18
2019-01-30T13:57:38.675Z,10.75
2019-01-30T13:58:42.817Z,11.22
2019-01-30T13:59:47.104Z,9.33
2019-01-30T14:00:51.128Z,9.03
2019-01-30T14:01:55.145Z,8.63
2019-01-30T14:02:59.332Z,12.85
2019-01-30T14:04:03.317Z,10.23
2019-01-30T14:05:08.179Z,8.90
2019-01-30T14:06:12.128Z,11.93
2019-01-30T14:07:16.244Z,8.48